sensor_id;sensor_type;location;lat;lon;timestamp;P1;durP1;ratioP1;P2;durP2;ratioP2
67503;SDS011;54351;49.108;1.502;2022-10-31T00:02:07;278.95;;;260.20;;
67503;SDS011;54351;49.108;1.502;2022-10-31T00:04:33;329.52;;;307.73;;
67503;SDS011;54351;49.108;1.502;2022-10-31T00:06:59;397.40;;;370.80;;
67503;SDS011;54351;49.108;1.502;2022-10-31T00:09:25;375.17;;;350.25;;
67503;SDS011;54351;49.108;1.502;2022-10-31T00:11:51;380.50;;;354.83;;
67503;SDS011;54351;49.108;1.502;2022-10-31T00:14:17;368.50;;;343.30;;
67503;SDS011;54351;49.108;1.502;2022-10-31T00:16:43;369.75;;;344.40;;
67503;SDS011;54351;49.108;1.502;2022-10-31T00:19:09;332.58;;;309.92;;
67503;SDS011;54351;49.108;1.502;2022-10-31T00:21:35;335.75;;;313.17;;
67503;SDS011;54351;49.108;1.502;2022-10-31T00:24:01;273.02;;;254.73;;
67503;SDS011;54351;49.108;1.502;2022-10-31T00:26:28;306.15;;;285.27;;
67503;SDS011;54351;49.108;1.502;2022-10-31T00:28:54;327.17;;;305.35;;
67503;SDS011;54351;49.108;1.502;2022-10-31T00:31:20;252.07;;;234.30;;
67503;SDS011;54351;49.108;1.502;2022-10-31T00:33:46;318.25;;;296.70;;
67503;SDS011;54351;49.108;1.502;2022-10-31T00:36:16;318.23;;;296.50;;
67503;SDS011;54351;49.108;1.502;2022-10-31T00:38:43;278.33;;;259.77;;
67503;SDS011;54351;49.108;1.502;2022-10-31T00:41:10;272.17;;;253.60;;
67503;SDS011;54351;49.108;1.502;2022-10-31T00:43:36;315.05;;;293.77;;
67503;SDS011;54351;49.108;1.502;2022-10-31T00:46:02;281.00;;;262.63;;
67503;SDS011;54351;49.108;1.502;2022-10-31T00:48:28;293.40;;;274.05;;
67503;SDS011;54351;49.108;1.502;2022-10-31T00:50:54;251.43;;;235.82;;
67503;SDS011;54351;49.108;1.502;2022-10-31T00:53:21;209.30;;;197.07;;
67503;SDS011;54351;49.108;1.502;2022-10-31T00:55:47;217.85;;;204.88;;
67503;SDS011;54351;49.108;1.502;2022-10-31T00:58:13;239.52;;;225.00;;
67503;SDS011;54351;49.108;1.502;2022-10-31T01:00:39;231.98;;;217.55;;
67503;SDS011;54351;49.108;1.502;2022-10-31T01:03:05;185.32;;;173.52;;
67503;SDS011;54351;49.108;1.502;2022-10-31T01:05:31;232.05;;;217.80;;
67503;SDS011;54351;49.108;1.502;2022-10-31T01:07:58;221.20;;;208.13;;
67503;SDS011;54351;49.108;1.502;2022-10-31T01:10:24;216.57;;;203.95;;
67503;SDS011;54351;49.108;1.502;2022-10-31T01:12:50;219.88;;;207.02;;
67503;SDS011;54351;49.108;1.502;2022-10-31T01:15:17;222.20;;;208.73;;
67503;SDS011;54351;49.108;1.502;2022-10-31T01:17:44;225.98;;;211.98;;
67503;SDS011;54351;49.108;1.502;2022-10-31T01:20:10;214.85;;;202.25;;
67503;SDS011;54351;49.108;1.502;2022-10-31T01:22:37;205.57;;;193.30;;
67503;SDS011;54351;49.108;1.502;2022-10-31T01:25:03;217.68;;;204.50;;
67503;SDS011;54351;49.108;1.502;2022-10-31T01:27:30;229.05;;;214.82;;
67503;SDS011;54351;49.108;1.502;2022-10-31T01:29:56;213.77;;;200.85;;
67503;SDS011;54351;49.108;1.502;2022-10-31T01:32:22;210.50;;;198.13;;
67503;SDS011;54351;49.108;1.502;2022-10-31T01:34:48;223.60;;;209.30;;
67503;SDS011;54351;49.108;1.502;2022-10-31T01:37:14;213.48;;;200.70;;
67503;SDS011;54351;49.108;1.502;2022-10-31T01:39:41;225.25;;;211.63;;
67503;SDS011;54351;49.108;1.502;2022-10-31T01:42:09;208.25;;;195.63;;
67503;SDS011;54351;49.108;1.502;2022-10-31T01:47:10;188.50;;;176.95;;
67503;SDS011;54351;49.108;1.502;2022-10-31T01:52:13;175.88;;;165.27;;
67503;SDS011;54351;49.108;1.502;2022-10-31T01:54:41;185.45;;;173.75;;
67503;SDS011;54351;49.108;1.502;2022-10-31T01:57:10;166.63;;;156.25;;
67503;SDS011;54351;49.108;1.502;2022-10-31T01:59:39;183.40;;;171.98;;
67503;SDS011;54351;49.108;1.502;2022-10-31T02:02:06;161.10;;;151.10;;
67503;SDS011;54351;49.108;1.502;2022-10-31T02:04:32;211.13;;;197.45;;
67503;SDS011;54351;49.108;1.502;2022-10-31T02:07:06;228.15;;;214.13;;
67503;SDS011;54351;49.108;1.502;2022-10-31T02:09:34;185.65;;;174.32;;
67503;SDS011;54351;49.108;1.502;2022-10-31T02:12:01;210.95;;;197.70;;
67503;SDS011;54351;49.108;1.502;2022-10-31T02:14:27;175.60;;;164.70;;
67503;SDS011;54351;49.108;1.502;2022-10-31T02:16:55;230.32;;;215.65;;
67503;SDS011;54351;49.108;1.502;2022-10-31T02:19:27;197.38;;;184.90;;
67503;SDS011;54351;49.108;1.502;2022-10-31T02:21:59;193.32;;;180.98;;
67503;SDS011;54351;49.108;1.502;2022-10-31T02:31:58;343.35;;;321.95;;
67503;SDS011;54351;49.108;1.502;2022-10-31T02:37:19;295.50;;;276.85;;
67503;SDS011;54351;49.108;1.502;2022-10-31T02:39:51;326.80;;;306.05;;
67503;SDS011;54351;49.108;1.502;2022-10-31T02:44:49;288.55;;;270.27;;
67503;SDS011;54351;49.108;1.502;2022-10-31T02:49:45;242.57;;;227.25;;
67503;SDS011;54351;49.108;1.502;2022-10-31T02:52:17;293.75;;;275.05;;
67503;SDS011;54351;49.108;1.502;2022-10-31T02:54:43;279.00;;;260.58;;
67503;SDS011;54351;49.108;1.502;2022-10-31T02:57:10;356.08;;;332.98;;
67503;SDS011;54351;49.108;1.502;2022-10-31T02:59:36;260.38;;;243.40;;
67503;SDS011;54351;49.108;1.502;2022-10-31T03:12:40;462.23;;;430.90;;
67503;SDS011;54351;49.108;1.502;2022-10-31T03:15:42;433.40;;;403.92;;
67503;SDS011;54351;49.108;1.502;2022-10-31T03:18:17;492.27;;;457.65;;
67503;SDS011;54351;49.108;1.502;2022-10-31T03:20:50;469.95;;;438.33;;
67503;SDS011;54351;49.108;1.502;2022-10-31T03:23:19;488.75;;;454.95;;
67503;SDS011;54351;49.108;1.502;2022-10-31T03:25:47;532.10;;;495.58;;
67503;SDS011;54351;49.108;1.502;2022-10-31T03:28:15;507.40;;;472.00;;
67503;SDS011;54351;49.108;1.502;2022-10-31T03:30:42;450.52;;;419.80;;
67503;SDS011;54351;49.108;1.502;2022-10-31T03:33:10;528.08;;;491.15;;
67503;SDS011;54351;49.108;1.502;2022-10-31T03:35:39;546.30;;;507.95;;
67503;SDS011;54351;49.108;1.502;2022-10-31T03:38:08;568.75;;;527.63;;
67503;SDS011;54351;49.108;1.502;2022-10-31T03:40:35;563.22;;;523.05;;
67503;SDS011;54351;49.108;1.502;2022-10-31T03:43:07;516.90;;;480.92;;
67503;SDS011;54351;49.108;1.502;2022-10-31T03:45:36;550.08;;;511.92;;
67503;SDS011;54351;49.108;1.502;2022-10-31T03:48:04;568.95;;;528.35;;
67503;SDS011;54351;49.108;1.502;2022-10-31T03:50:32;568.88;;;528.40;;
67503;SDS011;54351;49.108;1.502;2022-10-31T03:53:06;464.00;;;431.40;;
67503;SDS011;54351;49.108;1.502;2022-10-31T03:55:50;506.02;;;470.80;;
67503;SDS011;54351;49.108;1.502;2022-10-31T04:00:44;525.08;;;488.33;;
67503;SDS011;54351;49.108;1.502;2022-10-31T04:03:14;480.08;;;446.63;;
67503;SDS011;54351;49.108;1.502;2022-10-31T04:05:42;542.15;;;504.35;;
67503;SDS011;54351;49.108;1.502;2022-10-31T04:08:10;586.97;;;545.97;;
67503;SDS011;54351;49.108;1.502;2022-10-31T04:10:37;535.80;;;498.75;;
67503;SDS011;54351;49.108;1.502;2022-10-31T04:13:05;511.58;;;475.45;;
67503;SDS011;54351;49.108;1.502;2022-10-31T04:15:32;582.05;;;541.25;;
67503;SDS011;54351;49.108;1.502;2022-10-31T04:17:59;580.25;;;539.20;;
67503;SDS011;54351;49.108;1.502;2022-10-31T04:20:29;627.90;;;583.13;;
67503;SDS011;54351;49.108;1.502;2022-10-31T04:22:56;521.38;;;484.40;;
67503;SDS011;54351;49.108;1.502;2022-10-31T04:25:22;573.20;;;533.33;;
67503;SDS011;54351;49.108;1.502;2022-10-31T04:27:48;525.85;;;488.73;;
67503;SDS011;54351;49.108;1.502;2022-10-31T04:30:14;600.75;;;557.90;;
67503;SDS011;54351;49.108;1.502;2022-10-31T04:32:40;640.88;;;595.60;;
67503;SDS011;54351;49.108;1.502;2022-10-31T04:35:06;587.60;;;546.00;;
67503;SDS011;54351;49.108;1.502;2022-10-31T04:37:32;581.53;;;540.25;;
67503;SDS011;54351;49.108;1.502;2022-10-31T04:39:58;627.78;;;583.17;;
67503;SDS011;54351;49.108;1.502;2022-10-31T04:42:30;573.78;;;533.28;;
67503;SDS011;54351;49.108;1.502;2022-10-31T04:44:56;596.35;;;553.97;;
67503;SDS011;54351;49.108;1.502;2022-10-31T04:47:22;578.17;;;537.05;;
67503;SDS011;54351;49.108;1.502;2022-10-31T04:49:48;555.50;;;515.97;;
67503;SDS011;54351;49.108;1.502;2022-10-31T04:52:14;529.90;;;492.25;;
67503;SDS011;54351;49.108;1.502;2022-10-31T04:54:40;540.90;;;502.33;;
67503;SDS011;54351;49.108;1.502;2022-10-31T04:57:06;522.78;;;485.83;;
67503;SDS011;54351;49.108;1.502;2022-10-31T04:59:32;574.20;;;532.78;;
67503;SDS011;54351;49.108;1.502;2022-10-31T05:01:58;609.17;;;565.30;;
67503;SDS011;54351;49.108;1.502;2022-10-31T05:04:24;586.90;;;544.92;;
67503;SDS011;54351;49.108;1.502;2022-10-31T05:06:50;570.45;;;529.00;;
67503;SDS011;54351;49.108;1.502;2022-10-31T05:09:16;527.58;;;489.55;;
67503;SDS011;54351;49.108;1.502;2022-10-31T05:11:43;496.73;;;460.85;;
67503;SDS011;54351;49.108;1.502;2022-10-31T05:14:09;475.23;;;442.50;;
67503;SDS011;54351;49.108;1.502;2022-10-31T05:16:35;433.90;;;403.95;;
67503;SDS011;54351;49.108;1.502;2022-10-31T05:19:01;464.67;;;432.60;;
67503;SDS011;54351;49.108;1.502;2022-10-31T05:21:27;453.30;;;421.33;;
67503;SDS011;54351;49.108;1.502;2022-10-31T05:23:53;528.20;;;490.73;;
67503;SDS011;54351;49.108;1.502;2022-10-31T05:26:19;488.15;;;454.40;;
67503;SDS011;54351;49.108;1.502;2022-10-31T05:28:45;477.42;;;443.88;;
67503;SDS011;54351;49.108;1.502;2022-10-31T05:31:11;535.22;;;497.85;;
67503;SDS011;54351;49.108;1.502;2022-10-31T05:33:37;490.10;;;455.65;;
67503;SDS011;54351;49.108;1.502;2022-10-31T05:36:03;461.73;;;429.60;;
67503;SDS011;54351;49.108;1.502;2022-10-31T05:38:29;523.92;;;487.23;;
67503;SDS011;54351;49.108;1.502;2022-10-31T05:40:55;443.55;;;412.88;;
67503;SDS011;54351;49.108;1.502;2022-10-31T05:43:26;473.13;;;439.83;;
67503;SDS011;54351;49.108;1.502;2022-10-31T05:45:55;418.52;;;389.83;;
67503;SDS011;54351;49.108;1.502;2022-10-31T05:48:21;462.10;;;429.45;;
67503;SDS011;54351;49.108;1.502;2022-10-31T05:50:48;485.33;;;451.27;;
67503;SDS011;54351;49.108;1.502;2022-10-31T05:53:14;471.95;;;438.80;;
67503;SDS011;54351;49.108;1.502;2022-10-31T05:55:41;478.48;;;445.33;;
67503;SDS011;54351;49.108;1.502;2022-10-31T05:58:08;483.70;;;449.92;;
67503;SDS011;54351;49.108;1.502;2022-10-31T06:00:34;454.80;;;423.52;;
67503;SDS011;54351;49.108;1.502;2022-10-31T06:03:03;480.60;;;447.15;;
67503;SDS011;54351;49.108;1.502;2022-10-31T06:05:30;505.58;;;469.60;;
67503;SDS011;54351;49.108;1.502;2022-10-31T06:07:56;513.42;;;477.02;;
67503;SDS011;54351;49.108;1.502;2022-10-31T06:10:25;490.75;;;456.48;;
67503;SDS011;54351;49.108;1.502;2022-10-31T06:12:51;449.35;;;417.90;;
67503;SDS011;54351;49.108;1.502;2022-10-31T06:15:17;449.58;;;418.67;;
67503;SDS011;54351;49.108;1.502;2022-10-31T06:17:44;407.35;;;378.98;;
67503;SDS011;54351;49.108;1.502;2022-10-31T06:20:10;445.35;;;413.73;;
67503;SDS011;54351;49.108;1.502;2022-10-31T06:22:36;422.52;;;393.13;;
67503;SDS011;54351;49.108;1.502;2022-10-31T06:25:02;403.02;;;375.05;;
67503;SDS011;54351;49.108;1.502;2022-10-31T06:27:29;358.40;;;333.90;;
67503;SDS011;54351;49.108;1.502;2022-10-31T06:29:55;388.30;;;361.38;;
67503;SDS011;54351;49.108;1.502;2022-10-31T06:32:21;420.08;;;390.13;;
67503;SDS011;54351;49.108;1.502;2022-10-31T06:34:48;462.77;;;430.10;;
67503;SDS011;54351;49.108;1.502;2022-10-31T06:37:14;527.03;;;489.52;;
67503;SDS011;54351;49.108;1.502;2022-10-31T06:39:40;424.35;;;394.60;;
67503;SDS011;54351;49.108;1.502;2022-10-31T06:42:09;469.48;;;436.30;;
67503;SDS011;54351;49.108;1.502;2022-10-31T06:44:35;421.25;;;391.75;;
67503;SDS011;54351;49.108;1.502;2022-10-31T06:47:01;453.95;;;422.50;;
67503;SDS011;54351;49.108;1.502;2022-10-31T06:49:27;397.30;;;370.17;;
67503;SDS011;54351;49.108;1.502;2022-10-31T06:51:53;461.40;;;428.80;;
67503;SDS011;54351;49.108;1.502;2022-10-31T06:54:19;432.85;;;402.77;;
67503;SDS011;54351;49.108;1.502;2022-10-31T06:56:46;396.17;;;369.10;;
67503;SDS011;54351;49.108;1.502;2022-10-31T06:59:13;459.35;;;427.00;;
67503;SDS011;54351;49.108;1.502;2022-10-31T07:01:39;463.38;;;431.85;;
67503;SDS011;54351;49.108;1.502;2022-10-31T07:04:05;471.70;;;438.35;;
67503;SDS011;54351;49.108;1.502;2022-10-31T07:06:31;463.27;;;430.67;;
67503;SDS011;54351;49.108;1.502;2022-10-31T07:08:57;464.65;;;432.25;;
67503;SDS011;54351;49.108;1.502;2022-10-31T07:11:23;487.05;;;453.70;;
67503;SDS011;54351;49.108;1.502;2022-10-31T07:13:49;482.45;;;448.30;;
67503;SDS011;54351;49.108;1.502;2022-10-31T07:16:15;477.45;;;443.88;;
67503;SDS011;54351;49.108;1.502;2022-10-31T07:18:41;502.02;;;466.50;;
67503;SDS011;54351;49.108;1.502;2022-10-31T07:21:07;493.17;;;458.17;;
67503;SDS011;54351;49.108;1.502;2022-10-31T07:23:33;501.02;;;465.77;;
67503;SDS011;54351;49.108;1.502;2022-10-31T07:25:59;485.10;;;450.50;;
67503;SDS011;54351;49.108;1.502;2022-10-31T07:28:26;497.05;;;461.13;;
67503;SDS011;54351;49.108;1.502;2022-10-31T07:30:53;501.23;;;464.23;;
67503;SDS011;54351;49.108;1.502;2022-10-31T07:33:19;494.02;;;458.45;;
67503;SDS011;54351;49.108;1.502;2022-10-31T07:35:46;474.73;;;440.38;;
67503;SDS011;54351;49.108;1.502;2022-10-31T07:38:12;461.80;;;427.77;;
67503;SDS011;54351;49.108;1.502;2022-10-31T07:40:39;470.58;;;436.50;;
67503;SDS011;54351;49.108;1.502;2022-10-31T07:43:05;491.95;;;455.63;;
67503;SDS011;54351;49.108;1.502;2022-10-31T07:45:31;498.77;;;461.92;;
67503;SDS011;54351;49.108;1.502;2022-10-31T07:47:57;498.45;;;461.88;;
67503;SDS011;54351;49.108;1.502;2022-10-31T07:50:24;497.73;;;459.63;;
67503;SDS011;54351;49.108;1.502;2022-10-31T07:52:57;480.02;;;443.65;;
67503;SDS011;54351;49.108;1.502;2022-10-31T07:55:23;436.73;;;405.10;;
67503;SDS011;54351;49.108;1.502;2022-10-31T07:57:56;426.45;;;395.92;;
67503;SDS011;54351;49.108;1.502;2022-10-31T08:00:22;414.50;;;385.65;;
67503;SDS011;54351;49.108;1.502;2022-10-31T08:02:55;451.20;;;417.50;;
67503;SDS011;54351;49.108;1.502;2022-10-31T08:05:21;385.85;;;358.70;;
67503;SDS011;54351;49.108;1.502;2022-10-31T08:07:47;401.55;;;372.50;;
67503;SDS011;54351;49.108;1.502;2022-10-31T08:10:13;414.80;;;385.02;;
67503;SDS011;54351;49.108;1.502;2022-10-31T08:12:40;376.33;;;350.23;;
67503;SDS011;54351;49.108;1.502;2022-10-31T08:15:06;381.38;;;355.30;;
67503;SDS011;54351;49.108;1.502;2022-10-31T08:17:34;354.70;;;330.80;;
67503;SDS011;54351;49.108;1.502;2022-10-31T08:20:00;336.70;;;314.35;;
67503;SDS011;54351;49.108;1.502;2022-10-31T08:22:26;417.33;;;388.20;;
67503;SDS011;54351;49.108;1.502;2022-10-31T08:24:52;402.67;;;374.02;;
67503;SDS011;54351;49.108;1.502;2022-10-31T08:27:19;425.10;;;394.00;;
67503;SDS011;54351;49.108;1.502;2022-10-31T08:29:45;415.33;;;384.95;;
67503;SDS011;54351;49.108;1.502;2022-10-31T08:32:11;476.38;;;441.40;;
67503;SDS011;54351;49.108;1.502;2022-10-31T08:34:37;424.83;;;395.17;;
67503;SDS011;54351;49.108;1.502;2022-10-31T08:37:03;410.13;;;380.63;;
67503;SDS011;54351;49.108;1.502;2022-10-31T08:39:29;504.17;;;466.63;;
67503;SDS011;54351;49.108;1.502;2022-10-31T08:41:55;517.10;;;478.67;;
67503;SDS011;54351;49.108;1.502;2022-10-31T08:44:21;531.28;;;493.00;;
67503;SDS011;54351;49.108;1.502;2022-10-31T08:46:47;508.33;;;470.60;;
67503;SDS011;54351;49.108;1.502;2022-10-31T08:49:13;515.40;;;477.65;;
67503;SDS011;54351;49.108;1.502;2022-10-31T08:51:39;541.67;;;502.65;;
67503;SDS011;54351;49.108;1.502;2022-10-31T08:54:05;542.58;;;502.95;;
67503;SDS011;54351;49.108;1.502;2022-10-31T08:56:31;578.00;;;536.35;;
67503;SDS011;54351;49.108;1.502;2022-10-31T08:58:57;587.22;;;545.05;;
67503;SDS011;54351;49.108;1.502;2022-10-31T09:01:23;562.60;;;522.00;;
67503;SDS011;54351;49.108;1.502;2022-10-31T09:03:49;543.40;;;504.17;;
67503;SDS011;54351;49.108;1.502;2022-10-31T09:06:15;536.55;;;497.52;;
67503;SDS011;54351;49.108;1.502;2022-10-31T09:08:41;475.60;;;441.08;;
67503;SDS011;54351;49.108;1.502;2022-10-31T09:11:08;523.00;;;484.40;;
67503;SDS011;54351;49.108;1.502;2022-10-31T09:13:34;527.17;;;488.50;;
67503;SDS011;54351;49.108;1.502;2022-10-31T09:16:00;473.08;;;438.13;;
67503;SDS011;54351;49.108;1.502;2022-10-31T09:18:26;460.55;;;426.40;;
67503;SDS011;54351;49.108;1.502;2022-10-31T09:20:53;495.10;;;458.50;;
67503;SDS011;54351;49.108;1.502;2022-10-31T09:23:20;570.75;;;529.53;;
67503;SDS011;54351;49.108;1.502;2022-10-31T09:25:47;543.70;;;504.23;;
67503;SDS011;54351;49.108;1.502;2022-10-31T09:28:14;508.13;;;469.73;;
67503;SDS011;54351;49.108;1.502;2022-10-31T09:30:41;476.77;;;441.13;;
67503;SDS011;54351;49.108;1.502;2022-10-31T09:33:11;449.85;;;416.02;;
67503;SDS011;54351;49.108;1.502;2022-10-31T09:35:37;445.02;;;412.50;;
67503;SDS011;54351;49.108;1.502;2022-10-31T09:38:05;361.77;;;336.70;;
67503;SDS011;54351;49.108;1.502;2022-10-31T09:40:35;367.42;;;340.85;;
67503;SDS011;54351;49.108;1.502;2022-10-31T09:43:25;360.83;;;334.95;;
67503;SDS011;54351;49.108;1.502;2022-10-31T09:45:51;277.85;;;257.95;;
67503;SDS011;54351;49.108;1.502;2022-10-31T09:50:52;284.27;;;264.48;;
67503;SDS011;54351;49.108;1.502;2022-10-31T09:53:23;277.13;;;257.13;;
67503;SDS011;54351;49.108;1.502;2022-10-31T09:55:50;317.23;;;293.92;;
67503;SDS011;54351;49.108;1.502;2022-10-31T09:58:20;290.67;;;271.00;;
67503;SDS011;54351;49.108;1.502;2022-10-31T10:00:48;324.55;;;302.48;;
67503;SDS011;54351;49.108;1.502;2022-10-31T10:06:14;293.65;;;273.73;;
67503;SDS011;54351;49.108;1.502;2022-10-31T10:08:43;254.38;;;237.77;;
67503;SDS011;54351;49.108;1.502;2022-10-31T10:11:30;329.50;;;306.67;;
67503;SDS011;54351;49.108;1.502;2022-10-31T10:14:04;351.02;;;326.45;;
67503;SDS011;54351;49.108;1.502;2022-10-31T10:19:18;331.80;;;305.88;;
67503;SDS011;54351;49.108;1.502;2022-10-31T10:32:13;526.60;;;482.55;;
67503;SDS011;54351;49.108;1.502;2022-10-31T10:34:42;557.35;;;511.45;;
67503;SDS011;54351;49.108;1.502;2022-10-31T10:37:17;534.60;;;490.98;;
67503;SDS011;54351;49.108;1.502;2022-10-31T10:39:47;509.27;;;467.55;;
67503;SDS011;54351;49.108;1.502;2022-10-31T10:42:15;599.33;;;553.58;;
67503;SDS011;54351;49.108;1.502;2022-10-31T10:45:07;652.63;;;605.45;;
67503;SDS011;54351;49.108;1.502;2022-10-31T10:47:59;639.88;;;590.65;;
67503;SDS011;54351;49.108;1.502;2022-10-31T10:50:32;634.08;;;588.65;;
67503;SDS011;54351;49.108;1.502;2022-10-31T10:58:29;659.10;;;612.00;;
67503;SDS011;54351;49.108;1.502;2022-10-31T11:00:55;635.38;;;590.13;;
67503;SDS011;54351;49.108;1.502;2022-10-31T11:03:21;634.28;;;585.85;;
67503;SDS011;54351;49.108;1.502;2022-10-31T11:05:49;598.95;;;554.97;;
67503;SDS011;54351;49.108;1.502;2022-10-31T11:08:29;551.75;;;508.77;;
67503;SDS011;54351;49.108;1.502;2022-10-31T11:10:56;597.63;;;551.22;;
67503;SDS011;54351;49.108;1.502;2022-10-31T11:13:23;559.70;;;517.40;;
67503;SDS011;54351;49.108;1.502;2022-10-31T11:15:54;565.58;;;521.92;;
67503;SDS011;54351;49.108;1.502;2022-10-31T11:18:22;577.42;;;533.92;;
67503;SDS011;54351;49.108;1.502;2022-10-31T11:20:52;462.75;;;429.98;;
67503;SDS011;54351;49.108;1.502;2022-10-31T11:23:19;564.70;;;525.78;;
67503;SDS011;54351;49.108;1.502;2022-10-31T11:25:49;560.78;;;521.53;;
67503;SDS011;54351;49.108;1.502;2022-10-31T11:28:15;526.63;;;489.00;;
67503;SDS011;54351;49.108;1.502;2022-10-31T11:30:42;516.20;;;480.58;;
67503;SDS011;54351;49.108;1.502;2022-10-31T11:33:21;475.63;;;443.67;;
67503;SDS011;54351;49.108;1.502;2022-10-31T11:35:48;496.45;;;463.48;;
67503;SDS011;54351;49.108;1.502;2022-10-31T11:38:18;523.67;;;486.80;;
67503;SDS011;54351;49.108;1.502;2022-10-31T11:40:56;451.63;;;419.88;;
67503;SDS011;54351;49.108;1.502;2022-10-31T11:43:23;559.85;;;521.75;;
67503;SDS011;54351;49.108;1.502;2022-10-31T11:45:49;503.02;;;466.35;;
67503;SDS011;54351;49.108;1.502;2022-10-31T11:48:17;477.33;;;441.63;;
67503;SDS011;54351;49.108;1.502;2022-10-31T11:50:47;447.90;;;414.73;;
67503;SDS011;54351;49.108;1.502;2022-10-31T11:53:18;426.95;;;396.20;;
67503;SDS011;54351;49.108;1.502;2022-10-31T11:55:46;454.83;;;420.75;;
67503;SDS011;54351;49.108;1.502;2022-10-31T11:58:20;417.02;;;386.77;;
67503;SDS011;54351;49.108;1.502;2022-10-31T12:00:51;437.17;;;405.33;;
67503;SDS011;54351;49.108;1.502;2022-10-31T12:06:04;490.63;;;453.92;;
67503;SDS011;54351;49.108;1.502;2022-10-31T12:08:31;429.20;;;397.70;;
67503;SDS011;54351;49.108;1.502;2022-10-31T12:11:01;513.10;;;474.80;;
67503;SDS011;54351;49.108;1.502;2022-10-31T12:13:34;492.65;;;452.73;;
67503;SDS011;54351;49.108;1.502;2022-10-31T12:16:12;519.55;;;477.65;;
67503;SDS011;54351;49.108;1.502;2022-10-31T12:21:21;587.60;;;540.33;;
67503;SDS011;54351;49.108;1.502;2022-10-31T12:24:03;641.60;;;587.25;;
67503;SDS011;54351;49.108;1.502;2022-10-31T12:29:51;650.75;;;594.33;;
67503;SDS011;54351;49.108;1.502;2022-10-31T12:36:53;659.03;;;600.15;;
67503;SDS011;54351;49.108;1.502;2022-10-31T12:39:25;671.38;;;613.45;;
67503;SDS011;54351;49.108;1.502;2022-10-31T12:42:04;687.55;;;627.63;;
67503;SDS011;54351;49.108;1.502;2022-10-31T12:49:54;822.38;;;753.33;;
67503;SDS011;54351;49.108;1.502;2022-10-31T13:00:18;831.42;;;763.50;;
67503;SDS011;54351;49.108;1.502;2022-10-31T13:02:54;855.88;;;786.05;;
67503;SDS011;54351;49.108;1.502;2022-10-31T13:08:02;846.83;;;776.88;;
67503;SDS011;54351;49.108;1.502;2022-10-31T13:12:57;880.00;;;807.70;;
67503;SDS011;54351;49.108;1.502;2022-10-31T13:15:26;850.38;;;780.08;;
67503;SDS011;54351;49.108;1.502;2022-10-31T13:17:56;875.78;;;802.22;;
67503;SDS011;54351;49.108;1.502;2022-10-31T13:25:54;845.80;;;775.42;;
67503;SDS011;54351;49.108;1.502;2022-10-31T13:30:47;828.30;;;759.97;;
67503;SDS011;54351;49.108;1.502;2022-10-31T13:33:17;867.72;;;796.40;;
67503;SDS011;54351;49.108;1.502;2022-10-31T13:35:52;837.08;;;768.10;;
67503;SDS011;54351;49.108;1.502;2022-10-31T13:38:29;819.55;;;751.33;;
67503;SDS011;54351;49.108;1.502;2022-10-31T13:45:53;870.00;;;796.65;;
67503;SDS011;54351;49.108;1.502;2022-10-31T13:48:32;850.75;;;779.35;;
67503;SDS011;54351;49.108;1.502;2022-10-31T13:51:00;851.85;;;781.13;;
67503;SDS011;54351;49.108;1.502;2022-10-31T13:53:40;824.97;;;755.92;;
67503;SDS011;54351;49.108;1.502;2022-10-31T13:58:34;850.60;;;779.42;;
67503;SDS011;54351;49.108;1.502;2022-10-31T14:03:30;872.20;;;799.05;;
67503;SDS011;54351;49.108;1.502;2022-10-31T14:05:59;903.53;;;827.72;;
67503;SDS011;54351;49.108;1.502;2022-10-31T14:08:27;866.28;;;794.05;;
67503;SDS011;54351;49.108;1.502;2022-10-31T14:10:54;779.92;;;714.42;;
67503;SDS011;54351;49.108;1.502;2022-10-31T14:13:29;818.15;;;749.05;;
67503;SDS011;54351;49.108;1.502;2022-10-31T14:16:14;835.30;;;765.22;;
67503;SDS011;54351;49.108;1.502;2022-10-31T14:18:44;860.15;;;788.15;;
67503;SDS011;54351;49.108;1.502;2022-10-31T14:23:50;858.80;;;786.08;;
67503;SDS011;54351;49.108;1.502;2022-10-31T14:28:47;832.17;;;761.00;;
67503;SDS011;54351;49.108;1.502;2022-10-31T14:33:57;792.83;;;724.83;;
67503;SDS011;54351;49.108;1.502;2022-10-31T14:36:48;743.45;;;679.30;;
67503;SDS011;54351;49.108;1.502;2022-10-31T14:44:51;781.53;;;715.08;;
67503;SDS011;54351;49.108;1.502;2022-10-31T14:49:50;810.35;;;739.97;;
67503;SDS011;54351;49.108;1.502;2022-10-31T14:52:21;816.22;;;746.42;;
67503;SDS011;54351;49.108;1.502;2022-10-31T14:54:49;787.15;;;719.78;;
67503;SDS011;54351;49.108;1.502;2022-10-31T14:57:19;886.97;;;809.90;;
67503;SDS011;54351;49.108;1.502;2022-10-31T14:59:47;813.92;;;744.60;;
67503;SDS011;54351;49.108;1.502;2022-10-31T15:02:16;793.35;;;724.92;;
67503;SDS011;54351;49.108;1.502;2022-10-31T15:04:44;768.00;;;700.50;;
67503;SDS011;54351;49.108;1.502;2022-10-31T15:07:13;729.08;;;665.33;;
67503;SDS011;54351;49.108;1.502;2022-10-31T15:09:40;827.30;;;755.28;;
67503;SDS011;54351;49.108;1.502;2022-10-31T15:12:33;795.33;;;725.97;;
67503;SDS011;54351;49.108;1.502;2022-10-31T15:15:19;750.50;;;684.95;;
67503;SDS011;54351;49.108;1.502;2022-10-31T15:17:47;859.30;;;785.25;;
67503;SDS011;54351;49.108;1.502;2022-10-31T15:20:19;814.83;;;744.58;;
67503;SDS011;54351;49.108;1.502;2022-10-31T15:22:45;768.55;;;702.70;;
67503;SDS011;54351;49.108;1.502;2022-10-31T15:25:14;793.38;;;724.78;;
67503;SDS011;54351;49.108;1.502;2022-10-31T15:27:42;752.45;;;686.72;;
67503;SDS011;54351;49.108;1.502;2022-10-31T15:30:21;776.45;;;708.13;;
67503;SDS011;54351;49.108;1.502;2022-10-31T15:32:48;769.47;;;702.60;;
67503;SDS011;54351;49.108;1.502;2022-10-31T15:35:22;748.90;;;682.17;;
67503;SDS011;54351;49.108;1.502;2022-10-31T15:37:49;693.95;;;632.47;;
67503;SDS011;54351;49.108;1.502;2022-10-31T15:40:16;741.80;;;677.28;;
67503;SDS011;54351;49.108;1.502;2022-10-31T15:42:43;714.55;;;652.75;;
67503;SDS011;54351;49.108;1.502;2022-10-31T15:47:38;709.97;;;648.20;;
67503;SDS011;54351;49.108;1.502;2022-10-31T15:50:06;688.17;;;629.47;;
67503;SDS011;54351;49.108;1.502;2022-10-31T15:52:44;664.00;;;607.10;;
67503;SDS011;54351;49.108;1.502;2022-10-31T15:55:19;649.30;;;594.08;;
67503;SDS011;54351;49.108;1.502;2022-10-31T15:57:49;661.03;;;603.83;;
67503;SDS011;54351;49.108;1.502;2022-10-31T16:02:49;651.95;;;596.78;;
67503;SDS011;54351;49.108;1.502;2022-10-31T16:05:23;606.20;;;555.75;;
67503;SDS011;54351;49.108;1.502;2022-10-31T16:08:00;613.42;;;562.08;;
67503;SDS011;54351;49.108;1.502;2022-10-31T16:13:31;568.25;;;521.60;;
67503;SDS011;54351;49.108;1.502;2022-10-31T16:16:01;566.85;;;520.92;;